Terminal Aerodrome Forecast
Issued by NWS Blacksburg, VA

Home | Current Version | Previous Version | Text Only | Print | Product List | Glossary On
Versions: 1 2 3 4 5 6 7 8 9 10 11 12 13 14 15 16 17 18 19 20 21 22 23 24 25 26 27 28 29
970
FTUS41 KRNK 271805 CCA
TAFDAN
TAF COR
KDAN 271805Z 2718/2818 06005KT P6SM VCTS BKN040CB
     FM271830 08020G30KT 1SM TSRA BR OVC020CB
     FM272000 06005KT P6SM VCTS BKN040CB
     FM280200 VRB03KT P6SM SCT050
     FM281400 06005KT P6SM SCT250=

USA.gov is the U.S. government's official web portal to all federal, state and local government web resources and services.